Terminal Aerodrome Forecast
Issued by NWS Portland, OR

Home | Current Version | Previous Version | Text Only | Print | Product List | Glossary On
Versions: 1 2 3 4 5 6 7 8 9 10 11 12 13 14 15 16
000
FTUS46 KPQR 240531 AAA
TAFEUG
TAF AMD
KEUG 240531Z 2406/2506 19012KT 5SM -RA BR BKN025 OVC035
     FM240800 19014G22KT 4SM RA BR BKN015 OVC025
     FM241500 22010G18KT P6SM -SHRA BKN025 OVC045
     FM241900 22010KT P6SM -SHRA SCT025 BKN040 BKN060
     FM250100 22005KT P6SM SCT050=

USA.gov is the U.S. government's official web portal to all federal, state and local government web resources and services.